sensor_id;sensor_type;location;lat;lon;timestamp;pressure;altitude;pressure_sealevel;temperature;humidity
84928;BME280;75189;50.640;19.242;2024-03-08T00:01:42;102558.52;;;-1.75;70.36
84928;BME280;75189;50.640;19.242;2024-03-08T00:07:51;102567.36;;;-1.78;70.35
84928;BME280;75189;50.640;19.242;2024-03-08T00:13:58;102566.37;;;-1.85;70.46
84928;BME280;75189;50.640;19.242;2024-03-08T00:20:06;102572.56;;;-1.86;70.40
84928;BME280;75189;50.640;19.242;2024-03-08T00:26:27;102562.70;;;-1.90;70.35
84928;BME280;75189;50.640;19.242;2024-03-08T00:32:36;102563.46;;;-1.97;70.57
84928;BME280;75189;50.640;19.242;2024-03-08T00:38:43;102571.41;;;-2.00;70.66
84928;BME280;75189;50.640;19.242;2024-03-08T00:44:50;102564.21;;;-2.06;70.83
84928;BME280;75189;50.640;19.242;2024-03-08T00:50:57;102560.66;;;-2.05;70.77
84928;BME280;75189;50.640;19.242;2024-03-08T00:57:05;102558.80;;;-2.09;70.62
84928;BME280;75189;50.640;19.242;2024-03-08T01:03:12;102559.53;;;-2.17;70.74
84928;BME280;75189;50.640;19.242;2024-03-08T01:09:19;102555.06;;;-2.18;70.79
84928;BME280;75189;50.640;19.242;2024-03-08T01:15:44;102550.52;;;-2.25;70.71
84928;BME280;75189;50.640;19.242;2024-03-08T01:21:51;102547.75;;;-2.30;70.80
84928;BME280;75189;50.640;19.242;2024-03-08T01:27:58;102546.73;;;-2.37;70.92
84928;BME280;75189;50.640;19.242;2024-03-08T01:34:05;102545.79;;;-2.40;70.87
84928;BME280;75189;50.640;19.242;2024-03-08T01:40:12;102531.41;;;-2.48;70.91
84928;BME280;75189;50.640;19.242;2024-03-08T01:46:21;102530.38;;;-2.55;70.98
84928;BME280;75189;50.640;19.242;2024-03-08T01:52:32;102524.06;;;-2.60;70.92
84928;BME280;75189;50.640;19.242;2024-03-08T01:58:41;102513.38;;;-2.62;70.97
84928;BME280;75189;50.640;19.242;2024-03-08T02:05:08;102514.16;;;-2.67;70.89
84928;BME280;75189;50.640;19.242;2024-03-08T02:11:15;102504.23;;;-2.74;70.96
84928;BME280;75189;50.640;19.242;2024-03-08T02:17:22;102506.82;;;-2.77;70.98
84928;BME280;75189;50.640;19.242;2024-03-08T02:23:29;102505.84;;;-2.83;71.12
84928;BME280;75189;50.640;19.242;2024-03-08T02:29:36;102503.08;;;-2.87;71.15
84928;BME280;75189;50.640;19.242;2024-03-08T02:35:44;102498.53;;;-2.93;71.17
84928;BME280;75189;50.640;19.242;2024-03-08T02:41:54;102501.99;;;-2.97;71.14
84928;BME280;75189;50.640;19.242;2024-03-08T02:48:01;102496.62;;;-3.00;70.92
84928;BME280;75189;50.640;19.242;2024-03-08T02:54:19;102501.76;;;-3.09;70.85
84928;BME280;75189;50.640;19.242;2024-03-08T03:00:27;102501.59;;;-3.17;70.85
84928;BME280;75189;50.640;19.242;2024-03-08T03:06:34;102498.84;;;-3.20;70.91
84928;BME280;75189;50.640;19.242;2024-03-08T03:12:41;102505.90;;;-3.23;70.92
84928;BME280;75189;50.640;19.242;2024-03-08T03:18:48;102504.13;;;-3.23;71.01
84928;BME280;75189;50.640;19.242;2024-03-08T03:24:55;102509.38;;;-3.26;71.06
84928;BME280;75189;50.640;19.242;2024-03-08T03:31:07;102511.95;;;-3.29;71.16
84928;BME280;75189;50.640;19.242;2024-03-08T03:37:14;102506.62;;;-3.29;71.18
84928;BME280;75189;50.640;19.242;2024-03-08T03:43:37;102495.07;;;-3.31;71.33
84928;BME280;75189;50.640;19.242;2024-03-08T03:49:46;102497.83;;;-3.26;71.45
84928;BME280;75189;50.640;19.242;2024-03-08T03:55:53;102504.06;;;-3.24;71.52
84928;BME280;75189;50.640;19.242;2024-03-08T04:02:00;102490.75;;;-3.24;71.58
84928;BME280;75189;50.640;19.242;2024-03-08T04:08:07;102480.10;;;-3.24;71.60
84928;BME280;75189;50.640;19.242;2024-03-08T04:14:14;102483.64;;;-3.25;71.65
84928;BME280;75189;50.640;19.242;2024-03-08T04:20:21;102483.64;;;-3.25;71.73
84928;BME280;75189;50.640;19.242;2024-03-08T04:26:28;102484.48;;;-3.28;71.69
84928;BME280;75189;50.640;19.242;2024-03-08T04:32:53;102487.07;;;-3.31;71.67
84928;BME280;75189;50.640;19.242;2024-03-08T04:39:00;102477.13;;;-3.38;71.66
84928;BME280;75189;50.640;19.242;2024-03-08T04:45:09;102485.98;;;-3.41;71.59
84928;BME280;75189;50.640;19.242;2024-03-08T04:51:20;102490.25;;;-3.47;71.55
84928;BME280;75189;50.640;19.242;2024-03-08T04:57:27;102498.12;;;-3.52;71.47
84928;BME280;75189;50.640;19.242;2024-03-08T05:03:34;102489.12;;;-3.59;71.50
84928;BME280;75189;50.640;19.242;2024-03-08T05:09:41;102492.54;;;-3.64;71.56
84928;BME280;75189;50.640;19.242;2024-03-08T05:15:49;102500.52;;;-3.64;71.52
84928;BME280;75189;50.640;19.242;2024-03-08T05:22:11;102493.34;;;-3.67;71.60
84928;BME280;75189;50.640;19.242;2024-03-08T05:28:17;102497.85;;;-3.64;71.69
84928;BME280;75189;50.640;19.242;2024-03-08T05:34:24;102487.16;;;-3.66;71.78
84928;BME280;75189;50.640;19.242;2024-03-08T05:40:32;102486.38;;;-3.62;71.89
84928;BME280;75189;50.640;19.242;2024-03-08T05:46:39;102492.69;;;-3.56;71.99
84928;BME280;75189;50.640;19.242;2024-03-08T05:52:46;102488.45;;;-3.48;72.08
84928;BME280;75189;50.640;19.242;2024-03-08T05:58:56;102491.23;;;-3.42;72.16
84928;BME280;75189;50.640;19.242;2024-03-08T06:05:05;102487.87;;;-3.35;72.17
84928;BME280;75189;50.640;19.242;2024-03-08T06:11:28;102497.74;;;-3.29;72.24
84928;BME280;75189;50.640;19.242;2024-03-08T06:17:38;102498.81;;;-3.21;72.43
84928;BME280;75189;50.640;19.242;2024-03-08T06:23:45;102497.24;;;-3.12;72.58
84928;BME280;75189;50.640;19.242;2024-03-08T06:29:52;102493.06;;;-3.00;72.66
84928;BME280;75189;50.640;19.242;2024-03-08T06:35:59;102490.63;;;-2.88;72.82
84928;BME280;75189;50.640;19.242;2024-03-08T06:42:07;102493.58;;;-2.74;73.02
84928;BME280;75189;50.640;19.242;2024-03-08T06:48:16;102485.92;;;-2.56;73.32
84928;BME280;75189;50.640;19.242;2024-03-08T06:54:23;102494.20;;;-2.41;73.61
84928;BME280;75189;50.640;19.242;2024-03-08T07:00:45;102485.73;;;-2.18;73.97
84928;BME280;75189;50.640;19.242;2024-03-08T07:06:53;102480.82;;;-1.94;74.23
84928;BME280;75189;50.640;19.242;2024-03-08T07:13:00;102496.48;;;-1.58;74.68
84928;BME280;75189;50.640;19.242;2024-03-08T07:19:10;102496.81;;;-1.36;74.64
84928;BME280;75189;50.640;19.242;2024-03-08T07:25:18;102497.07;;;-1.19;74.66
84928;BME280;75189;50.640;19.242;2024-03-08T07:31:28;102499.27;;;-0.86;74.89
84928;BME280;75189;50.640;19.242;2024-03-08T07:37:49;102502.16;;;-0.68;74.70
84928;BME280;75189;50.640;19.242;2024-03-08T07:43:56;102487.95;;;-0.61;74.32
84928;BME280;75189;50.640;19.242;2024-03-08T07:50:04;102484.50;;;-0.52;74.03
84928;BME280;75189;50.640;19.242;2024-03-08T07:56:11;102496.27;;;-0.36;73.78
84928;BME280;75189;50.640;19.242;2024-03-08T08:02:22;102478.56;;;-0.22;73.25
84928;BME280;75189;50.640;19.242;2024-03-08T08:08:29;102485.02;;;0.00;72.90
84928;BME280;75189;50.640;19.242;2024-03-08T08:14:36;102465.66;;;0.38;72.76
84928;BME280;75189;50.640;19.242;2024-03-08T08:20:43;102465.09;;;0.94;72.67
84928;BME280;75189;50.640;19.242;2024-03-08T08:26:50;102461.70;;;1.53;71.63
84928;BME280;75189;50.640;19.242;2024-03-08T08:32:57;102459.94;;;2.10;70.04
84928;BME280;75189;50.640;19.242;2024-03-08T08:39:20;102456.27;;;2.59;68.05
84928;BME280;75189;50.640;19.242;2024-03-08T08:45:30;102458.86;;;2.97;66.61
84928;BME280;75189;50.640;19.242;2024-03-08T08:51:37;102453.34;;;3.29;64.98
84928;BME280;75189;50.640;19.242;2024-03-08T08:57:45;102445.88;;;3.71;64.19
84928;BME280;75189;50.640;19.242;2024-03-08T09:03:52;102446.42;;;4.14;64.00
84928;BME280;75189;50.640;19.242;2024-03-08T09:10:00;102440.71;;;4.49;62.08
84928;BME280;75189;50.640;19.242;2024-03-08T09:16:07;102446.70;;;4.74;61.01
84928;BME280;75189;50.640;19.242;2024-03-08T09:22:16;102439.58;;;4.69;57.59
84928;BME280;75189;50.640;19.242;2024-03-08T09:28:37;102432.19;;;4.84;57.90
84928;BME280;75189;50.640;19.242;2024-03-08T09:34:45;102418.53;;;5.00;57.71
84928;BME280;75189;50.640;19.242;2024-03-08T09:40:52;102412.83;;;5.23;56.54
84928;BME280;75189;50.640;19.242;2024-03-08T09:46:59;102401.97;;;5.27;54.73
84928;BME280;75189;50.640;19.242;2024-03-08T09:53:08;102399.88;;;5.46;55.90
84928;BME280;75189;50.640;19.242;2024-03-08T09:59:16;102384.49;;;5.51;54.86
84928;BME280;75189;50.640;19.242;2024-03-08T10:05:34;102397.45;;;5.85;55.73
84928;BME280;75189;50.640;19.242;2024-03-08T10:11:41;102392.48;;;6.13;55.91
84928;BME280;75189;50.640;19.242;2024-03-08T10:17:55;102391.26;;;6.31;54.55
84928;BME280;75189;50.640;19.242;2024-03-08T10:24:05;102385.01;;;6.27;53.69
84928;BME280;75189;50.640;19.242;2024-03-08T10:30:15;102371.23;;;6.41;54.32
84928;BME280;75189;50.640;19.242;2024-03-08T10:36:28;102376.26;;;6.61;53.83
84928;BME280;75189;50.640;19.242;2024-03-08T10:42:40;102370.66;;;6.69;51.82
84928;BME280;75189;50.640;19.242;2024-03-08T10:48:52;102373.51;;;6.62;50.89
84928;BME280;75189;50.640;19.242;2024-03-08T10:55:04;102368.94;;;6.64;50.82
84928;BME280;75189;50.640;19.242;2024-03-08T11:01:42;102373.61;;;6.58;51.11
84928;BME280;75189;50.640;19.242;2024-03-08T11:07:50;102352.76;;;6.63;51.57
84928;BME280;75189;50.640;19.242;2024-03-08T11:13:58;102349.11;;;6.66;51.10
84928;BME280;75189;50.640;19.242;2024-03-08T11:20:11;102347.75;;;6.86;51.41
84928;BME280;75189;50.640;19.242;2024-03-08T11:26:24;102331.55;;;6.83;50.17
84928;BME280;75189;50.640;19.242;2024-03-08T11:32:31;102334.95;;;6.93;49.54
84928;BME280;75189;50.640;19.242;2024-03-08T11:38:45;102328.34;;;7.06;50.66
84928;BME280;75189;50.640;19.242;2024-03-08T11:44:56;102327.70;;;7.34;51.08
84928;BME280;75189;50.640;19.242;2024-03-08T11:51:05;102307.56;;;7.46;50.92
84928;BME280;75189;50.640;19.242;2024-03-08T11:57:12;102290.96;;;7.59;50.07
84928;BME280;75189;50.640;19.242;2024-03-08T12:03:20;102297.73;;;7.42;47.71
84928;BME280;75189;50.640;19.242;2024-03-08T12:09:30;102295.02;;;7.42;48.46
84928;BME280;75189;50.640;19.242;2024-03-08T12:15:37;102290.20;;;7.53;47.96
84928;BME280;75189;50.640;19.242;2024-03-08T12:21:44;102286.54;;;7.55;49.24
84928;BME280;75189;50.640;19.242;2024-03-08T12:27:54;102286.59;;;7.54;48.37
84928;BME280;75189;50.640;19.242;2024-03-08T12:34:04;102274.71;;;7.58;48.26
84928;BME280;75189;50.640;19.242;2024-03-08T12:40:30;102263.11;;;7.53;48.75
84928;BME280;75189;50.640;19.242;2024-03-08T12:46:48;102258.46;;;7.58;48.72
84928;BME280;75189;50.640;19.242;2024-03-08T12:52:59;102251.25;;;7.58;48.15
84928;BME280;75189;50.640;19.242;2024-03-08T12:59:07;102244.84;;;7.61;48.53
84928;BME280;75189;50.640;19.242;2024-03-08T13:05:16;102245.91;;;7.55;47.52
84928;BME280;75189;50.640;19.242;2024-03-08T13:11:23;102224.93;;;7.62;48.82
84928;BME280;75189;50.640;19.242;2024-03-08T13:17:30;102233.76;;;7.70;48.78
84928;BME280;75189;50.640;19.242;2024-03-08T13:23:37;102229.35;;;7.66;48.47
84928;BME280;75189;50.640;19.242;2024-03-08T13:29:48;102214.10;;;7.62;48.04
84928;BME280;75189;50.640;19.242;2024-03-08T13:35:55;102209.57;;;7.62;47.67
84928;BME280;75189;50.640;19.242;2024-03-08T13:42:04;102210.43;;;7.64;48.46
84928;BME280;75189;50.640;19.242;2024-03-08T13:48:19;102198.60;;;7.67;48.60
84928;BME280;75189;50.640;19.242;2024-03-08T13:54:28;102202.17;;;7.69;48.65
84928;BME280;75189;50.640;19.242;2024-03-08T14:00:37;102198.02;;;7.56;47.92
84928;BME280;75189;50.640;19.242;2024-03-08T14:06:47;102189.62;;;7.32;47.14
84928;BME280;75189;50.640;19.242;2024-03-08T14:12:55;102195.44;;;7.17;47.28
84928;BME280;75189;50.640;19.242;2024-03-08T14:19:03;102181.09;;;7.13;48.01
84928;BME280;75189;50.640;19.242;2024-03-08T14:25:12;102183.61;;;7.21;48.21
84928;BME280;75189;50.640;19.242;2024-03-08T14:31:23;102171.97;;;7.16;48.29
84928;BME280;75189;50.640;19.242;2024-03-08T14:37:36;102177.39;;;7.16;48.45
84928;BME280;75189;50.640;19.242;2024-03-08T14:53:35;102160.37;;;7.12;48.78
84928;BME280;75189;50.640;19.242;2024-03-08T14:59:42;102167.66;;;7.09;48.34
84928;BME280;75189;50.640;19.242;2024-03-08T15:05:51;102156.37;;;6.92;48.61
84928;BME280;75189;50.640;19.242;2024-03-08T15:12:00;102151.89;;;6.91;48.57
84928;BME280;75189;50.640;19.242;2024-03-08T15:18:07;102152.05;;;6.84;48.76
84928;BME280;75189;50.640;19.242;2024-03-08T15:24:14;102160.41;;;6.74;48.80
84928;BME280;75189;50.640;19.242;2024-03-08T15:30:28;102149.59;;;6.74;49.50
84928;BME280;75189;50.640;19.242;2024-03-08T15:36:37;102163.17;;;6.72;50.08
84928;BME280;75189;50.640;19.242;2024-03-08T15:42:55;102158.53;;;6.77;50.40
84928;BME280;75189;50.640;19.242;2024-03-08T15:49:03;102158.91;;;6.62;50.79
84928;BME280;75189;50.640;19.242;2024-03-08T15:55:15;102161.79;;;6.54;50.92
84928;BME280;75189;50.640;19.242;2024-03-08T16:01:27;102156.54;;;6.48;51.25
84928;BME280;75189;50.640;19.242;2024-03-08T16:07:34;102157.63;;;6.40;51.60
84928;BME280;75189;50.640;19.242;2024-03-08T16:13:41;102165.17;;;6.24;51.87
84928;BME280;75189;50.640;19.242;2024-03-08T16:19:48;102166.50;;;6.06;52.33
84928;BME280;75189;50.640;19.242;2024-03-08T16:25:55;102167.79;;;5.85;52.65
84928;BME280;75189;50.640;19.242;2024-03-08T16:32:02;102172.71;;;5.65;53.00
84928;BME280;75189;50.640;19.242;2024-03-08T16:38:10;102167.74;;;5.42;53.29
84928;BME280;75189;50.640;19.242;2024-03-08T16:44:20;102169.13;;;5.15;53.56
84928;BME280;75189;50.640;19.242;2024-03-08T16:50:31;102165.09;;;4.88;53.78
84928;BME280;75189;50.640;19.242;2024-03-08T16:56:38;102161.09;;;4.56;54.18
84928;BME280;75189;50.640;19.242;2024-03-08T17:02:49;102168.70;;;4.28;54.67
84928;BME280;75189;50.640;19.242;2024-03-08T17:09:02;102165.41;;;4.06;55.14
84928;BME280;75189;50.640;19.242;2024-03-08T17:15:19;102162.99;;;3.85;55.40
84928;BME280;75189;50.640;19.242;2024-03-08T17:21:29;102175.87;;;3.58;55.59
84928;BME280;75189;50.640;19.242;2024-03-08T17:27:36;102166.23;;;3.36;55.62
84928;BME280;75189;50.640;19.242;2024-03-08T17:33:43;102170.12;;;3.04;55.88
84928;BME280;75189;50.640;19.242;2024-03-08T17:39:51;102159.67;;;2.69;56.53
84928;BME280;75189;50.640;19.242;2024-03-08T17:46:01;102154.47;;;2.43;57.24
84928;BME280;75189;50.640;19.242;2024-03-08T17:52:11;102159.96;;;2.27;57.65
84928;BME280;75189;50.640;19.242;2024-03-08T17:58:19;102168.09;;;2.11;57.92
84928;BME280;75189;50.640;19.242;2024-03-08T18:04:26;102164.61;;;1.92;58.16
84928;BME280;75189;50.640;19.242;2024-03-08T18:10:33;102170.96;;;1.72;58.58
84928;BME280;75189;50.640;19.242;2024-03-08T18:16:41;102167.39;;;1.61;58.60
84928;BME280;75189;50.640;19.242;2024-03-08T18:22:51;102166.59;;;1.36;58.94
84928;BME280;75189;50.640;19.242;2024-03-08T18:29:03;102171.11;;;1.16;59.41
84928;BME280;75189;50.640;19.242;2024-03-08T18:35:11;102172.88;;;1.00;59.75
84928;BME280;75189;50.640;19.242;2024-03-08T18:41:18;102152.36;;;0.88;60.02
84928;BME280;75189;50.640;19.242;2024-03-08T18:47:40;102152.33;;;0.82;60.04
84928;BME280;75189;50.640;19.242;2024-03-08T18:53:48;102150.54;;;0.69;60.36
84928;BME280;75189;50.640;19.242;2024-03-08T18:59:59;102158.59;;;0.57;60.61
84928;BME280;75189;50.640;19.242;2024-03-08T19:06:06;102150.55;;;0.47;60.77
84928;BME280;75189;50.640;19.242;2024-03-08T19:12:16;102145.18;;;0.38;60.98
84928;BME280;75189;50.640;19.242;2024-03-08T19:18:25;102146.95;;;0.29;61.16
84928;BME280;75189;50.640;19.242;2024-03-08T19:24:35;102154.95;;;0.21;61.34
84928;BME280;75189;50.640;19.242;2024-03-08T19:30:42;102150.46;;;0.12;61.44
84928;BME280;75189;50.640;19.242;2024-03-08T19:36:54;102151.33;;;0.04;61.62
84928;BME280;75189;50.640;19.242;2024-03-08T19:43:03;102149.52;;;-0.05;61.62
84928;BME280;75189;50.640;19.242;2024-03-08T19:49:16;102145.05;;;-0.12;61.67
84928;BME280;75189;50.640;19.242;2024-03-08T19:55:23;102141.42;;;-0.23;61.72
84928;BME280;75189;50.640;19.242;2024-03-08T20:01:30;102140.50;;;-0.36;61.91
84928;BME280;75189;50.640;19.242;2024-03-08T20:07:37;102143.10;;;-0.48;62.10
84928;BME280;75189;50.640;19.242;2024-03-08T20:13:44;102137.71;;;-0.56;62.28
84928;BME280;75189;50.640;19.242;2024-03-08T20:19:53;102140.33;;;-0.65;62.54
84928;BME280;75189;50.640;19.242;2024-03-08T20:26:11;102136.73;;;-0.73;62.78
84928;BME280;75189;50.640;19.242;2024-03-08T20:32:21;102134.01;;;-0.81;62.88
84928;BME280;75189;50.640;19.242;2024-03-08T20:38:28;102135.73;;;-0.89;63.03
84928;BME280;75189;50.640;19.242;2024-03-08T20:44:36;102128.55;;;-0.98;63.20
84928;BME280;75189;50.640;19.242;2024-03-08T20:50:43;102131.18;;;-1.04;63.47
84928;BME280;75189;50.640;19.242;2024-03-08T20:56:50;102122.25;;;-1.08;63.55
84928;BME280;75189;50.640;19.242;2024-03-08T21:03:00;102113.27;;;-1.19;63.76
84928;BME280;75189;50.640;19.242;2024-03-08T21:09:09;102111.47;;;-1.23;63.92
84928;BME280;75189;50.640;19.242;2024-03-08T21:15:28;102107.83;;;-1.31;64.06
84928;BME280;75189;50.640;19.242;2024-03-08T21:21:35;102105.12;;;-1.36;64.37
84928;BME280;75189;50.640;19.242;2024-03-08T21:27:43;102098.85;;;-1.39;64.47
84928;BME280;75189;50.640;19.242;2024-03-08T21:33:51;102085.47;;;-1.44;64.41
84928;BME280;75189;50.640;19.242;2024-03-08T21:39:59;102080.09;;;-1.50;64.43
84928;BME280;75189;50.640;19.242;2024-03-08T21:46:06;102072.94;;;-1.57;64.70
84928;BME280;75189;50.640;19.242;2024-03-08T21:52:15;102070.19;;;-1.63;64.90
84928;BME280;75189;50.640;19.242;2024-03-08T21:58:22;102072.82;;;-1.69;65.07
84928;BME280;75189;50.640;19.242;2024-03-08T22:04:46;102070.11;;;-1.72;65.21
84928;BME280;75189;50.640;19.242;2024-03-08T22:10:53;102079.85;;;-1.76;65.28
84928;BME280;75189;50.640;19.242;2024-03-08T22:17:03;102066.48;;;-1.81;65.40
84928;BME280;75189;50.640;19.242;2024-03-08T22:23:16;102057.58;;;-1.83;65.39
84928;BME280;75189;50.640;19.242;2024-03-08T22:29:28;102052.23;;;-1.84;65.40
84928;BME280;75189;50.640;19.242;2024-03-08T22:35:36;102047.70;;;-1.93;65.22
84928;BME280;75189;50.640;19.242;2024-03-08T22:41:43;102047.62;;;-2.00;65.37
84928;BME280;75189;50.640;19.242;2024-03-08T22:47:50;102039.57;;;-2.03;65.42
84928;BME280;75189;50.640;19.242;2024-03-08T22:54:04;102042.20;;;-2.08;65.50
84928;BME280;75189;50.640;19.242;2024-03-08T23:00:11;102028.77;;;-2.17;65.74
84928;BME280;75189;50.640;19.242;2024-03-08T23:06:28;102030.54;;;-2.18;65.74
84928;BME280;75189;50.640;19.242;2024-03-08T23:12:35;102026.05;;;-2.25;65.76
84928;BME280;75189;50.640;19.242;2024-03-08T23:18:43;102019.74;;;-2.32;65.96
84928;BME280;75189;50.640;19.242;2024-03-08T23:24:50;102022.41;;;-2.33;66.10
84928;BME280;75189;50.640;19.242;2024-03-08T23:30:57;102027.69;;;-2.36;66.17
84928;BME280;75189;50.640;19.242;2024-03-08T23:37:04;102029.51;;;-2.35;66.18
84928;BME280;75189;50.640;19.242;2024-03-08T23:43:21;102021.52;;;-2.34;66.04
84928;BME280;75189;50.640;19.242;2024-03-08T23:49:28;102016.96;;;-2.44;66.18
84928;BME280;75189;50.640;19.242;2024-03-08T23:55:36;102021.36;;;-2.49;66.23
